createdAt,value
2017-05-20T00:00:22.378Z,16.50
2017-05-20T00:01:24.213Z,16.43
2017-05-20T00:02:26.063Z,16.41
2017-05-20T00:03:27.917Z,16.50
2017-05-20T00:04:29.753Z,16.48
2017-05-20T00:05:31.599Z,16.48
2017-05-20T00:06:33.413Z,16.45
2017-05-20T00:07:47.640Z,16.53
2017-05-20T00:08:49.484Z,16.57
2017-05-20T00:09:51.303Z,16.60
2017-05-20T00:10:53.116Z,16.64
2017-05-20T00:11:54.943Z,16.78
2017-05-20T00:12:56.785Z,16.63
2017-05-20T00:13:58.634Z,16.67
2017-05-20T00:15:00.472Z,16.64
2017-05-20T00:16:02.291Z,16.60
2017-05-20T00:17:16.422Z,16.56
2017-05-20T00:18:18.269Z,16.52
2017-05-20T00:19:20.106Z,16.50
2017-05-20T00:20:21.950Z,16.45
2017-05-20T00:21:23.770Z,16.39
2017-05-20T00:22:25.615Z,16.28
2017-05-20T00:23:27.508Z,16.33
2017-05-20T00:24:29.326Z,16.25
2017-05-20T00:25:31.171Z,16.15
2017-05-20T00:26:45.347Z,16.21
2017-05-20T00:27:47.191Z,16.14
2017-05-20T00:28:49.133Z,16.21
2017-05-20T00:29:50.952Z,16.35
2017-05-20T00:30:52.769Z,16.27
2017-05-20T00:31:54.610Z,16.24
2017-05-20T00:32:56.431Z,16.25
2017-05-20T00:33:58.480Z,16.31
2017-05-20T00:35:00.294Z,16.27
2017-05-20T00:36:14.418Z,16.17
2017-05-20T00:37:16.241Z,16.15
2017-05-20T00:38:18.090Z,16.14
2017-05-20T00:39:19.930Z,16.11
2017-05-20T00:40:21.779Z,16.01
2017-05-20T00:41:23.613Z,16.00
2017-05-20T00:42:25.458Z,15.93
2017-05-20T00:43:27.279Z,15.78
2017-05-20T00:44:29.116Z,15.74
2017-05-20T00:45:43.216Z,15.72
2017-05-20T00:46:45.036Z,15.75
2017-05-20T00:47:46.884Z,15.82
2017-05-20T00:48:48.699Z,15.82
2017-05-20T00:49:50.641Z,15.82
2017-05-20T00:50:52.485Z,15.76
2017-05-20T00:51:54.302Z,15.83
2017-05-20T00:52:56.123Z,15.78
2017-05-20T00:53:57.974Z,15.71
2017-05-20T00:55:12.443Z,15.72
2017-05-20T00:56:14.287Z,15.75
2017-05-20T00:57:16.133Z,15.83
2017-05-20T00:58:17.947Z,15.86
2017-05-20T00:59:19.765Z,16.02
2017-05-20T01:00:21.628Z,15.93
2017-05-20T01:01:23.449Z,15.89
2017-05-20T01:02:25.295Z,15.74
2017-05-20T01:03:27.135Z,15.76
2017-05-20T01:04:41.559Z,15.67
2017-05-20T01:05:43.406Z,15.62
2017-05-20T01:06:45.221Z,15.56
2017-05-20T01:07:47.063Z,15.54
2017-05-20T01:08:48.908Z,15.53
2017-05-20T01:09:50.749Z,15.59
2017-05-20T01:10:52.696Z,15.53
2017-05-20T01:11:54.542Z,15.57
2017-05-20T01:12:56.380Z,15.60
2017-05-20T01:14:10.484Z,15.75
2017-05-20T01:15:12.294Z,15.59
2017-05-20T01:16:14.115Z,15.56
2017-05-20T01:17:15.931Z,15.49
2017-05-20T01:18:17.750Z,15.46
2017-05-20T01:19:19.588Z,15.38
2017-05-20T01:20:21.404Z,15.49
2017-05-20T01:21:23.446Z,15.51
2017-05-20T01:22:25.294Z,15.43
2017-05-20T01:23:39.411Z,15.36
2017-05-20T01:24:41.256Z,15.35
2017-05-20T01:25:43.072Z,15.27
2017-05-20T01:26:45.087Z,15.31
2017-05-20T01:27:46.929Z,15.36
2017-05-20T01:28:48.742Z,15.43
2017-05-20T01:29:50.585Z,15.38
2017-05-20T01:30:52.429Z,15.49
2017-05-20T01:31:54.646Z,15.49
2017-05-20T01:33:08.865Z,15.38
2017-05-20T01:34:10.711Z,15.44
2017-05-20T01:35:12.555Z,15.50
2017-05-20T01:36:14.394Z,15.49
2017-05-20T01:37:16.261Z,15.50
2017-05-20T01:38:18.080Z,15.36
2017-05-20T01:39:19.898Z,15.44
2017-05-20T01:40:21.716Z,15.39
2017-05-20T01:41:23.557Z,15.50
2017-05-20T01:42:37.881Z,15.50
2017-05-20T01:43:39.726Z,15.41
2017-05-20T01:44:41.562Z,15.29
2017-05-20T01:45:43.406Z,15.16
2017-05-20T01:46:45.247Z,15.14
2017-05-20T01:47:47.112Z,15.25
2017-05-20T01:48:48.959Z,15.27
2017-05-20T01:49:50.772Z,15.19
2017-05-20T01:50:52.608Z,15.10
2017-05-20T01:52:06.855Z,14.99
2017-05-20T01:53:08.670Z,14.96
2017-05-20T01:54:10.493Z,14.98
2017-05-20T01:55:12.333Z,14.98
2017-05-20T01:56:14.153Z,15.03
2017-05-20T01:57:15.991Z,15.02
2017-05-20T01:58:17.859Z,15.07
2017-05-20T01:59:19.710Z,14.95
2017-05-20T02:00:21.555Z,14.96
2017-05-20T02:01:35.722Z,14.92
2017-05-20T02:02:37.571Z,14.88
2017-05-20T02:03:39.412Z,15.01
2017-05-20T02:04:41.265Z,14.99
2017-05-20T02:05:43.100Z,15.06
2017-05-20T02:06:44.920Z,15.14
2017-05-20T02:07:46.740Z,14.96
2017-05-20T02:08:48.583Z,14.98
2017-05-20T02:09:50.423Z,15.07
2017-05-20T02:11:04.559Z,15.02
2017-05-20T02:12:06.393Z,15.03
2017-05-20T02:13:08.219Z,15.06
2017-05-20T02:14:10.355Z,15.03
2017-05-20T02:15:12.196Z,15.06
2017-05-20T02:16:14.037Z,14.99
2017-05-20T02:17:15.862Z,15.02
2017-05-20T02:18:17.699Z,14.89
2017-05-20T02:19:19.745Z,14.98
2017-05-20T02:20:33.869Z,14.96
2017-05-20T02:21:35.707Z,14.81
2017-05-20T02:22:37.555Z,14.88
2017-05-20T02:23:39.399Z,14.91
2017-05-20T02:24:41.242Z,14.84
2017-05-20T02:25:43.059Z,14.84
2017-05-20T02:26:44.877Z,14.83
2017-05-20T02:27:46.720Z,14.91
2017-05-20T02:28:48.566Z,14.94
2017-05-20T02:30:02.991Z,14.94
2017-05-20T02:31:04.841Z,14.95
2017-05-20T02:32:06.677Z,14.89
2017-05-20T02:33:08.519Z,14.99
2017-05-20T02:34:10.358Z,14.92
2017-05-20T02:35:12.280Z,14.99
2017-05-20T02:36:14.096Z,14.89
2017-05-20T02:37:15.937Z,14.91
2017-05-20T02:38:17.761Z,14.86
2017-05-20T02:39:31.887Z,14.89
2017-05-20T02:40:33.727Z,14.81
2017-05-20T02:41:35.580Z,14.86
2017-05-20T02:42:37.418Z,14.88
2017-05-20T02:43:39.256Z,14.95
2017-05-20T02:44:41.076Z,14.84
2017-05-20T02:45:43.316Z,14.83
2017-05-20T02:46:45.136Z,14.84
2017-05-20T02:47:46.985Z,14.91
2017-05-20T02:49:01.110Z,14.95
2017-05-20T02:50:02.954Z,15.01
2017-05-20T02:51:04.974Z,14.98
2017-05-20T02:52:06.814Z,14.91
2017-05-20T02:53:08.637Z,14.95
2017-05-20T02:54:10.481Z,15.02
2017-05-20T02:55:12.330Z,14.92
2017-05-20T02:56:14.254Z,14.92
2017-05-20T02:57:16.099Z,15.06
2017-05-20T02:58:30.233Z,14.95
2017-05-20T02:59:32.076Z,15.07
2017-05-20T03:00:33.895Z,15.09
2017-05-20T03:01:35.935Z,15.11
2017-05-20T03:02:37.778Z,15.16
2017-05-20T03:03:39.631Z,15.17
2017-05-20T03:04:41.469Z,15.09
2017-05-20T03:05:43.293Z,15.13
2017-05-20T03:06:45.138Z,15.29
2017-05-20T03:07:59.261Z,15.19
2017-05-20T03:09:01.079Z,15.19
2017-05-20T03:10:02.898Z,15.11
2017-05-20T03:11:04.721Z,15.13
2017-05-20T03:12:06.965Z,15.10
2017-05-20T03:13:08.813Z,15.11
2017-05-20T03:14:10.656Z,15.17
2017-05-20T03:15:12.505Z,15.07
2017-05-20T03:16:14.403Z,15.02
2017-05-20T03:17:28.637Z,14.86
2017-05-20T03:18:30.485Z,14.84
2017-05-20T03:19:32.332Z,14.89
2017-05-20T03:20:34.151Z,14.91
2017-05-20T03:21:35.999Z,14.84
2017-05-20T03:22:38.240Z,14.88
2017-05-20T03:23:40.082Z,14.83
2017-05-20T03:24:41.930Z,14.88
2017-05-20T03:25:43.748Z,15.01
2017-05-20T03:26:57.849Z,14.92
2017-05-20T03:27:59.698Z,14.78
2017-05-20T03:29:01.544Z,14.75
2017-05-20T03:30:03.364Z,14.72
2017-05-20T03:31:05.215Z,14.55
2017-05-20T03:32:07.064Z,14.61
2017-05-20T03:33:09.206Z,14.60
2017-05-20T03:34:11.055Z,14.64
2017-05-20T03:35:12.898Z,14.58
2017-05-20T03:36:27.046Z,14.57
2017-05-20T03:37:28.864Z,14.51
2017-05-20T03:38:30.856Z,14.51
2017-05-20T03:39:32.655Z,14.52
2017-05-20T03:40:34.501Z,14.57
2017-05-20T03:41:36.351Z,14.37
2017-05-20T03:42:38.199Z,14.54
2017-05-20T03:43:40.239Z,14.60
2017-05-20T03:44:42.063Z,14.57
2017-05-20T03:45:56.212Z,14.57
2017-05-20T03:46:58.059Z,14.61
2017-05-20T03:47:59.913Z,14.55
2017-05-20T03:49:01.756Z,14.58
2017-05-20T03:50:03.598Z,14.62
2017-05-20T03:51:05.418Z,14.73
2017-05-20T03:52:07.242Z,14.77
2017-05-20T03:53:09.085Z,14.64
2017-05-20T03:54:11.234Z,14.65
2017-05-20T03:55:25.388Z,14.77
2017-05-20T03:56:27.233Z,14.70
2017-05-20T03:57:29.051Z,14.73
2017-05-20T03:58:30.874Z,14.78
2017-05-20T03:59:33.073Z,14.83
2017-05-20T04:00:34.912Z,14.89
2017-05-20T04:01:36.737Z,14.89
2017-05-20T04:02:38.553Z,14.92
2017-05-20T04:03:40.371Z,15.01
2017-05-20T04:04:54.551Z,15.06
2017-05-20T04:05:56.401Z,14.99
2017-05-20T04:06:58.246Z,15.10
2017-05-20T04:08:00.062Z,15.09
2017-05-20T04:09:01.886Z,15.02
2017-05-20T04:10:04.027Z,15.13
2017-05-20T04:11:05.854Z,15.07
2017-05-20T04:12:07.693Z,15.01
2017-05-20T04:13:09.519Z,15.11
2017-05-20T04:14:23.696Z,15.07
2017-05-20T04:15:25.542Z,15.13
2017-05-20T04:16:27.395Z,15.11
2017-05-20T04:17:29.213Z,15.09
2017-05-20T04:18:31.057Z,14.96
2017-05-20T04:19:32.881Z,14.99
2017-05-20T04:20:34.826Z,14.86
2017-05-20T04:21:36.676Z,14.99
2017-05-20T04:22:38.495Z,14.81
2017-05-20T04:23:52.684Z,14.86
2017-05-20T04:24:54.498Z,14.78
2017-05-20T04:25:56.518Z,14.86
2017-05-20T04:26:58.341Z,14.84
2017-05-20T04:28:00.160Z,14.95
2017-05-20T04:29:02.009Z,14.94
2017-05-20T04:30:03.838Z,14.88
2017-05-20T04:31:05.688Z,14.88
2017-05-20T04:32:07.537Z,14.86
2017-05-20T04:33:21.716Z,14.75
2017-05-20T04:34:23.539Z,14.80
2017-05-20T04:35:25.386Z,14.73
2017-05-20T04:36:27.235Z,14.81
2017-05-20T04:37:29.053Z,14.81
2017-05-20T04:38:30.882Z,14.96
2017-05-20T04:39:32.728Z,14.89
2017-05-20T04:40:34.553Z,14.95
2017-05-20T04:41:36.496Z,14.91
2017-05-20T04:42:50.599Z,14.89
2017-05-20T04:43:52.447Z,14.84
2017-05-20T04:44:54.298Z,14.84
2017-05-20T04:45:56.119Z,14.89
2017-05-20T04:46:58.259Z,14.91
2017-05-20T04:48:00.083Z,14.88
2017-05-20T04:49:01.906Z,14.88
2017-05-20T04:50:03.751Z,14.84
2017-05-20T04:51:05.573Z,14.83
2017-05-20T04:52:19.701Z,14.75
2017-05-20T04:53:21.553Z,14.73
2017-05-20T04:54:23.394Z,14.75
2017-05-20T04:55:25.221Z,14.86
2017-05-20T04:56:27.037Z,14.75
2017-05-20T04:57:28.863Z,14.75
2017-05-20T04:58:30.685Z,14.77
2017-05-20T04:59:32.502Z,14.80
2017-05-20T05:00:34.325Z,14.57
2017-05-20T05:01:48.534Z,14.58
2017-05-20T05:02:50.383Z,14.61
2017-05-20T05:03:52.236Z,14.62
2017-05-20T05:04:54.078Z,14.69
2017-05-20T05:05:55.935Z,14.72
2017-05-20T05:06:57.781Z,14.78
2017-05-20T05:07:59.654Z,14.88
2017-05-20T05:09:01.477Z,14.94
2017-05-20T05:10:03.331Z,15.03
2017-05-20T05:11:17.457Z,15.25
2017-05-20T05:12:19.309Z,15.14
2017-05-20T05:13:21.162Z,15.13
2017-05-20T05:14:22.982Z,14.91
2017-05-20T05:15:24.824Z,14.80
2017-05-20T05:16:26.650Z,14.65
2017-05-20T05:17:28.491Z,14.70
2017-05-20T05:18:30.369Z,14.58
2017-05-20T05:19:32.213Z,14.72
2017-05-20T05:20:46.402Z,14.83
2017-05-20T05:21:48.242Z,14.81
2017-05-20T05:22:50.095Z,14.86
2017-05-20T05:23:52.042Z,14.88
2017-05-20T05:24:53.871Z,14.89
2017-05-20T05:25:55.723Z,14.92
2017-05-20T05:26:57.566Z,14.78
2017-05-20T05:27:59.421Z,14.77
2017-05-20T05:29:01.673Z,14.73
2017-05-20T05:30:15.852Z,14.92
2017-05-20T05:31:17.672Z,14.92
2017-05-20T05:32:19.494Z,14.89
2017-05-20T05:33:21.322Z,14.95
2017-05-20T05:34:23.166Z,14.99
2017-05-20T05:35:25.016Z,14.99
2017-05-20T05:36:26.840Z,15.13
2017-05-20T05:37:28.694Z,15.19
2017-05-20T05:38:30.539Z,15.34
2017-05-20T05:39:44.695Z,15.25
2017-05-20T05:40:46.545Z,15.16
2017-05-20T05:41:48.398Z,15.13
2017-05-20T05:42:50.244Z,15.13
2017-05-20T05:43:52.074Z,15.07
2017-05-20T05:44:54.017Z,14.99
2017-05-20T05:45:55.863Z,15.03
2017-05-20T05:46:57.691Z,15.07
2017-05-20T05:47:59.541Z,15.21
2017-05-20T05:49:13.641Z,15.32
2017-05-20T05:50:15.460Z,15.27
2017-05-20T05:51:17.292Z,15.31
2017-05-20T05:52:19.135Z,15.27
2017-05-20T05:53:20.963Z,15.25
2017-05-20T05:54:22.815Z,15.07
2017-05-20T05:55:24.665Z,14.95
2017-05-20T05:56:26.492Z,15.11
2017-05-20T05:57:28.335Z,15.06
2017-05-20T05:58:42.471Z,14.94
2017-05-20T05:59:44.324Z,14.98
2017-05-20T06:00:46.169Z,15.01
2017-05-20T06:01:48.016Z,14.92
2017-05-20T06:02:49.834Z,14.81
2017-05-20T06:03:51.662Z,14.84
2017-05-20T06:04:53.510Z,14.75
2017-05-20T06:05:55.463Z,14.89
2017-05-20T06:06:57.312Z,14.94
2017-05-20T06:08:11.459Z,14.94
2017-05-20T06:09:13.286Z,15.06
2017-05-20T06:10:15.109Z,15.19
2017-05-20T06:11:17.132Z,15.21
2017-05-20T06:12:18.981Z,15.06
2017-05-20T06:13:20.831Z,15.20
2017-05-20T06:14:22.679Z,15.34
2017-05-20T06:15:24.532Z,15.27
2017-05-20T06:16:26.373Z,15.27
2017-05-20T06:17:40.485Z,15.29
2017-05-20T06:18:42.335Z,15.39
2017-05-20T06:19:44.160Z,15.41
2017-05-20T06:20:46.013Z,15.43
2017-05-20T06:21:47.832Z,15.36
2017-05-20T06:22:49.681Z,15.32
2017-05-20T06:23:51.527Z,15.25
2017-05-20T06:24:53.357Z,15.35
2017-05-20T06:25:55.207Z,15.50
2017-05-20T06:27:09.387Z,15.57
2017-05-20T06:28:11.213Z,15.53
2017-05-20T06:29:13.057Z,15.46
2017-05-20T06:30:14.880Z,15.50
2017-05-20T06:31:16.702Z,15.46
2017-05-20T06:32:18.750Z,15.51
2017-05-20T06:33:20.584Z,15.51
2017-05-20T06:34:22.424Z,15.59
2017-05-20T06:35:24.276Z,15.62
2017-05-20T06:36:38.616Z,15.69
2017-05-20T06:37:40.474Z,15.83
2017-05-20T06:38:42.296Z,15.86
2017-05-20T06:39:44.145Z,15.75
2017-05-20T06:40:45.997Z,15.78
2017-05-20T06:41:47.826Z,15.75
2017-05-20T06:42:49.697Z,15.69
2017-05-20T06:43:51.524Z,15.75
2017-05-20T06:44:53.376Z,15.72
2017-05-20T06:46:07.487Z,15.86
2017-05-20T06:47:09.312Z,15.96
2017-05-20T06:48:11.161Z,15.97
2017-05-20T06:49:12.981Z,16.02
2017-05-20T06:50:14.812Z,15.96
2017-05-20T06:51:16.668Z,15.96
2017-05-20T06:52:18.517Z,16.02
2017-05-20T06:53:20.396Z,16.20
2017-05-20T06:54:22.217Z,16.41
2017-05-20T06:55:36.401Z,16.53
2017-05-20T06:56:38.234Z,16.57
2017-05-20T06:57:40.078Z,16.58
2017-05-20T06:58:42.009Z,16.48
2017-05-20T06:59:43.854Z,16.57
2017-05-20T07:00:45.714Z,16.52
2017-05-20T07:01:47.564Z,16.58
2017-05-20T07:02:49.397Z,16.64
2017-05-20T07:03:51.243Z,16.53
2017-05-20T07:05:05.388Z,16.41
2017-05-20T07:06:07.233Z,16.39
2017-05-20T07:07:09.064Z,16.35
2017-05-20T07:08:10.915Z,16.63
2017-05-20T07:09:12.868Z,16.58
2017-05-20T07:10:14.718Z,16.67
2017-05-20T07:11:16.597Z,16.81
2017-05-20T07:12:18.438Z,16.94
2017-05-20T07:13:20.294Z,17.03
2017-05-20T07:14:34.453Z,17.00
2017-05-20T07:15:36.301Z,16.97
2017-05-20T07:16:38.138Z,16.94
2017-05-20T07:17:39.991Z,17.04
2017-05-20T07:18:41.846Z,17.01
2017-05-20T07:19:43.911Z,17.01
2017-05-20T07:20:45.763Z,17.06
2017-05-20T07:21:47.623Z,16.88
2017-05-20T07:22:49.478Z,16.79
2017-05-20T07:24:03.605Z,16.63
2017-05-20T07:25:05.434Z,16.42
2017-05-20T07:26:07.286Z,16.30
2017-05-20T07:27:09.139Z,16.21
2017-05-20T07:28:10.981Z,16.25
2017-05-20T07:29:12.811Z,16.33
2017-05-20T07:30:14.742Z,16.23
2017-05-20T07:31:16.591Z,16.39
2017-05-20T07:32:18.446Z,16.53
2017-05-20T07:33:32.631Z,16.82
2017-05-20T07:34:34.482Z,17.00
2017-05-20T07:35:36.336Z,17.33
2017-05-20T07:36:38.191Z,17.40
2017-05-20T07:37:40.127Z,17.38
2017-05-20T07:38:41.978Z,17.48
2017-05-20T07:39:43.850Z,17.51
2017-05-20T07:40:45.794Z,17.64
2017-05-20T07:41:47.715Z,17.81
2017-05-20T07:43:01.903Z,17.71
2017-05-20T07:44:03.760Z,17.86
2017-05-20T07:45:05.669Z,17.66
2017-05-20T07:46:07.572Z,17.84
2017-05-20T07:47:09.431Z,17.95
2017-05-20T07:48:11.272Z,18.25
2017-05-20T07:49:13.087Z,18.45
2017-05-20T07:50:14.950Z,18.69
2017-05-20T07:51:16.891Z,18.85
2017-05-20T07:52:31.201Z,18.99
2017-05-20T07:53:33.055Z,18.91
2017-05-20T07:54:34.902Z,18.84
2017-05-20T07:55:36.755Z,18.67
2017-05-20T07:56:38.617Z,18.42
2017-05-20T07:57:40.465Z,18.21
2017-05-20T07:58:42.297Z,17.95
2017-05-20T07:59:44.156Z,17.68
2017-05-20T08:00:46.000Z,17.64
2017-05-20T08:02:00.136Z,17.48
2017-05-20T08:03:01.963Z,17.31
2017-05-20T08:04:03.812Z,17.25
2017-05-20T08:05:05.638Z,17.33
2017-05-20T08:06:07.490Z,17.28
2017-05-20T08:07:09.346Z,17.30
2017-05-20T08:08:11.198Z,17.25
2017-05-20T08:09:13.054Z,17.31
2017-05-20T08:10:14.902Z,17.46
2017-05-20T08:11:29.066Z,17.46
2017-05-20T08:12:30.918Z,17.41
2017-05-20T08:13:32.750Z,17.62
2017-05-20T08:14:34.596Z,17.55
2017-05-20T08:15:36.427Z,17.30
2017-05-20T08:16:38.328Z,17.23
2017-05-20T08:17:40.192Z,16.97
2017-05-20T08:18:42.045Z,16.71
2017-05-20T08:19:43.895Z,16.56
2017-05-20T08:20:58.024Z,16.41
2017-05-20T08:21:59.852Z,16.25
2017-05-20T08:23:01.706Z,16.24
2017-05-20T08:24:03.555Z,16.21
2017-05-20T08:25:05.399Z,16.17
2017-05-20T08:26:07.223Z,16.20
2017-05-20T08:27:09.047Z,16.24
2017-05-20T08:28:10.999Z,16.24
2017-05-20T08:29:12.880Z,16.27
2017-05-20T08:30:27.085Z,16.30
2017-05-20T08:31:28.936Z,16.31
2017-05-20T08:32:30.784Z,16.14
2017-05-20T08:33:32.664Z,16.21
2017-05-20T08:34:34.545Z,16.15
2017-05-20T08:35:36.461Z,16.25
2017-05-20T08:36:38.277Z,16.38
2017-05-20T08:37:40.121Z,16.50
2017-05-20T08:38:41.973Z,16.43
2017-05-20T08:39:56.085Z,16.50
2017-05-20T08:40:57.908Z,16.57
2017-05-20T08:41:59.734Z,16.61
2017-05-20T08:43:01.588Z,16.75
2017-05-20T08:44:03.441Z,16.75
2017-05-20T08:45:05.295Z,16.78
2017-05-20T08:46:07.147Z,16.82
2017-05-20T08:47:09.003Z,16.91
2017-05-20T08:48:10.870Z,16.79
2017-05-20T08:49:25.187Z,16.64
2017-05-20T08:50:27.044Z,16.78
2017-05-20T08:51:28.873Z,16.73
2017-05-20T08:52:30.723Z,16.89
2017-05-20T08:53:32.571Z,16.98
2017-05-20T08:54:34.625Z,16.96
2017-05-20T08:55:36.474Z,16.91
2017-05-20T08:56:38.299Z,16.97
2017-05-20T08:57:40.126Z,17.03
2017-05-20T08:58:54.533Z,17.00
2017-05-20T08:59:56.392Z,16.93
2017-05-20T09:00:58.243Z,16.93
2017-05-20T09:02:00.089Z,16.83
2017-05-20T09:03:01.915Z,16.71
2017-05-20T09:04:03.750Z,16.73
2017-05-20T09:05:05.598Z,16.66
2017-05-20T09:06:07.451Z,16.70
2017-05-20T09:07:09.282Z,16.81
2017-05-20T09:08:23.463Z,16.96
2017-05-20T09:09:25.318Z,17.03
2017-05-20T09:10:27.182Z,17.28
2017-05-20T09:11:29.026Z,17.38
2017-05-20T09:12:30.881Z,17.63
2017-05-20T09:13:32.728Z,17.92
2017-05-20T09:14:34.562Z,18.23
2017-05-20T09:15:36.509Z,18.45
2017-05-20T09:16:38.346Z,18.69
2017-05-20T09:17:52.815Z,18.72
2017-05-20T09:18:54.769Z,18.48
2017-05-20T09:19:56.616Z,18.18
2017-05-20T09:20:58.491Z,18.05
2017-05-20T09:22:00.318Z,17.82
2017-05-20T09:23:02.175Z,17.63
2017-05-20T09:24:04.026Z,17.52
2017-05-20T09:25:05.877Z,17.52
2017-05-20T09:26:07.734Z,17.59
2017-05-20T09:27:21.863Z,17.71
2017-05-20T09:28:23.693Z,17.71
2017-05-20T09:29:25.543Z,17.63
2017-05-20T09:30:27.595Z,17.63
2017-05-20T09:31:42.816Z,17.36
2017-05-20T09:32:44.674Z,17.21
2017-05-20T09:33:46.522Z,17.07
2017-05-20T09:34:48.371Z,17.03
2017-05-20T09:35:50.206Z,17.07
2017-05-20T09:37:04.443Z,17.07
2017-05-20T09:38:06.287Z,17.11
2017-05-20T09:39:08.119Z,17.15
2017-05-20T09:40:09.945Z,17.30
2017-05-20T09:41:11.802Z,17.23
2017-05-20T09:42:13.673Z,17.19
2017-05-20T09:43:15.502Z,17.04
2017-05-20T09:44:17.328Z,17.11
2017-05-20T09:45:19.157Z,17.11
2017-05-20T09:46:33.259Z,17.16
2017-05-20T09:47:35.088Z,17.30
2017-05-20T09:48:36.938Z,17.43
2017-05-20T09:49:38.795Z,17.54
2017-05-20T09:50:40.641Z,17.56
2017-05-20T09:51:42.472Z,17.56
2017-05-20T09:52:44.343Z,17.64
2017-05-20T09:53:46.173Z,17.64
2017-05-20T09:54:48.023Z,17.58
2017-05-20T09:56:02.186Z,17.58
2017-05-20T09:57:04.033Z,17.64
2017-05-20T09:58:05.892Z,17.52
2017-05-20T09:59:07.741Z,17.55
2017-05-20T10:00:09.593Z,17.70
2017-05-20T10:01:11.448Z,17.64
2017-05-20T10:02:13.303Z,17.78
2017-05-20T10:03:15.152Z,18.03
2017-05-20T10:04:16.984Z,18.26
2017-05-20T10:05:31.160Z,18.32
2017-05-20T10:06:33.010Z,18.29
2017-05-20T10:07:34.943Z,18.37
2017-05-20T10:08:36.864Z,18.29
2017-05-20T10:09:38.694Z,18.33
2017-05-20T10:10:40.520Z,18.41
2017-05-20T10:11:42.349Z,18.52
2017-05-20T10:12:44.208Z,18.51
2017-05-20T10:13:46.077Z,18.50
2017-05-20T10:15:00.431Z,18.54
2017-05-20T10:16:02.295Z,18.44
2017-05-20T10:17:04.123Z,18.33
2017-05-20T10:18:05.976Z,18.23
2017-05-20T10:19:07.902Z,18.17
2017-05-20T10:20:09.731Z,17.87
2017-05-20T10:21:11.582Z,17.52
2017-05-20T10:22:13.437Z,17.37
2017-05-20T10:23:15.288Z,17.26
2017-05-20T10:24:29.424Z,17.38
2017-05-20T10:25:31.440Z,17.51
2017-05-20T10:26:33.258Z,17.64
2017-05-20T10:27:35.095Z,17.77
2017-05-20T10:28:36.921Z,17.78
2017-05-20T10:29:38.776Z,18.03
2017-05-20T10:30:40.624Z,18.03
2017-05-20T10:31:42.456Z,17.93
2017-05-20T10:32:44.308Z,18.03
2017-05-20T10:33:58.639Z,17.81
2017-05-20T10:35:00.469Z,17.81
2017-05-20T10:36:02.325Z,17.87
2017-05-20T10:37:04.180Z,17.86
2017-05-20T10:38:06.035Z,17.93
2017-05-20T10:39:07.855Z,17.79
2017-05-20T10:40:09.784Z,17.70
2017-05-20T10:41:11.613Z,17.59
2017-05-20T10:42:13.462Z,17.56
2017-05-20T10:43:27.614Z,17.54
2017-05-20T10:44:29.457Z,17.48
2017-05-20T10:45:34.521Z,17.48
2017-05-20T10:46:36.544Z,17.46
2017-05-20T10:47:38.398Z,17.44
2017-05-20T10:48:40.257Z,17.52
2017-05-20T10:49:42.117Z,17.58
2017-05-20T10:50:43.985Z,17.59
2017-05-20T10:51:45.815Z,17.78
2017-05-20T10:52:59.950Z,17.70
2017-05-20T10:54:01.808Z,17.66
2017-05-20T10:55:03.665Z,17.63
2017-05-20T10:56:05.709Z,17.51
2017-05-20T10:57:07.541Z,17.48
2017-05-20T10:58:09.394Z,17.44
2017-05-20T10:59:11.243Z,17.44
2017-05-20T11:00:13.100Z,17.36
2017-05-20T11:01:15.203Z,17.48
2017-05-20T11:02:29.341Z,17.44
2017-05-20T11:03:31.213Z,17.28
2017-05-20T11:04:33.058Z,17.36
2017-05-20T11:05:34.868Z,17.34
2017-05-20T11:06:36.717Z,17.43
2017-05-20T11:07:38.563Z,17.54
2017-05-20T11:08:40.390Z,17.55
2017-05-20T11:09:42.218Z,17.54
2017-05-20T11:10:44.071Z,17.64
2017-05-20T11:11:58.237Z,17.79
2017-05-20T11:13:00.089Z,18.10
2017-05-20T11:14:01.937Z,18.29
2017-05-20T11:15:03.796Z,18.42
2017-05-20T11:16:05.644Z,18.44
2017-05-20T11:17:07.495Z,18.55
2017-05-20T11:18:09.347Z,18.66
2017-05-20T11:19:11.213Z,18.60
2017-05-20T11:20:13.313Z,18.42
2017-05-20T11:21:29.540Z,18.15
2017-05-20T11:22:31.398Z,17.96
2017-05-20T11:23:47.018Z,17.84
2017-05-20T11:24:50.451Z,17.81
2017-05-20T11:25:52.317Z,17.78
2017-05-20T11:26:54.548Z,17.70
2017-05-20T11:27:56.430Z,17.64
2017-05-20T11:28:58.867Z,17.55
2017-05-20T11:30:03.086Z,17.52
2017-05-20T11:31:17.235Z,17.58
2017-05-20T11:32:19.679Z,17.64
2017-05-20T11:33:22.968Z,17.63
2017-05-20T11:34:31.338Z,17.63
2017-05-20T11:35:33.795Z,17.84
2017-05-20T11:36:49.369Z,17.81
2017-05-20T11:37:51.819Z,17.68
2017-05-20T11:38:54.116Z,17.79
2017-05-20T11:39:57.982Z,17.96
2017-05-20T11:41:13.683Z,17.86
2017-05-20T11:42:19.561Z,17.79
2017-05-20T11:43:22.051Z,17.78
2017-05-20T11:44:24.130Z,17.79
2017-05-20T11:45:26.612Z,18.08
2017-05-20T11:46:29.057Z,18.11
2017-05-20T11:47:44.758Z,18.03
2017-05-20T11:48:46.861Z,18.17
2017-05-20T11:49:49.377Z,18.07
2017-05-20T11:51:17.228Z,18.02
2017-05-20T11:52:20.673Z,18.17
2017-05-20T11:53:24.117Z,18.14
2017-05-20T11:54:25.949Z,18.20
2017-05-20T11:55:28.056Z,18.11
2017-05-20T11:56:30.105Z,18.11
2017-05-20T11:57:33.707Z,18.25
2017-05-20T11:58:36.964Z,18.25
2017-05-20T11:59:38.811Z,18.23
2017-05-20T12:00:54.411Z,18.07
2017-05-20T12:01:56.873Z,18.03
2017-05-20T12:03:00.332Z,18.02
2017-05-20T12:04:02.179Z,18.07
2017-05-20T12:05:04.981Z,18.08
2017-05-20T12:06:06.862Z,18.05
2017-05-20T12:07:09.892Z,18.05
2017-05-20T12:08:15.760Z,18.08
2017-05-20T12:09:18.225Z,18.11
2017-05-20T12:10:33.998Z,18.02
2017-05-20T12:11:35.850Z,17.97
2017-05-20T12:12:37.708Z,18.03
2017-05-20T12:13:39.561Z,18.12
2017-05-20T12:14:41.406Z,18.30
2017-05-20T12:15:43.233Z,18.51
2017-05-20T12:16:45.264Z,18.62
2017-05-20T12:17:47.122Z,18.58
2017-05-20T12:18:48.948Z,18.37
2017-05-20T12:20:03.125Z,18.41
2017-05-20T12:21:04.975Z,18.45
2017-05-20T12:22:07.005Z,18.41
2017-05-20T12:23:08.904Z,18.47
2017-05-20T12:24:10.777Z,18.57
2017-05-20T12:25:12.719Z,18.60
2017-05-20T12:26:14.571Z,18.63
2017-05-20T12:27:16.419Z,18.75
2017-05-20T12:28:18.243Z,18.66
2017-05-20T12:29:32.425Z,18.70
2017-05-20T12:30:34.292Z,18.51
2017-05-20T12:31:36.132Z,18.47
2017-05-20T12:32:38.252Z,18.30
2017-05-20T12:33:40.085Z,18.12
2017-05-20T12:34:41.909Z,18.12
2017-05-20T12:35:43.867Z,18.26
2017-05-20T12:36:45.828Z,18.11
2017-05-20T12:37:47.858Z,17.96
2017-05-20T12:39:02.132Z,17.82
2017-05-20T12:40:03.961Z,17.74
2017-05-20T12:41:05.786Z,17.64
2017-05-20T12:42:07.663Z,17.72
2017-05-20T12:43:09.563Z,17.71
2017-05-20T12:44:11.428Z,17.64
2017-05-20T12:45:13.377Z,17.77
2017-05-20T12:46:15.452Z,17.93
2017-05-20T12:47:17.403Z,17.96
2017-05-20T12:48:31.680Z,17.87
2017-05-20T12:49:33.525Z,18.05
2017-05-20T12:50:35.357Z,17.86
2017-05-20T12:51:37.182Z,18.03
2017-05-20T12:52:39.014Z,17.96
2017-05-20T12:53:41.083Z,17.95
2017-05-20T12:54:42.950Z,17.78
2017-05-20T12:55:44.920Z,17.97
2017-05-20T12:56:46.767Z,18.00
2017-05-20T12:58:00.937Z,17.93
2017-05-20T12:59:02.792Z,18.05
2017-05-20T13:00:05.646Z,18.15
2017-05-20T13:01:08.129Z,18.23
2017-05-20T13:02:11.588Z,18.35
2017-05-20T13:03:13.417Z,18.58
2017-05-20T13:04:15.479Z,18.84
2017-05-20T13:05:18.927Z,18.91
2017-05-20T13:06:21.720Z,18.99
2017-05-20T13:07:37.292Z,19.10
2017-05-20T13:08:40.337Z,19.06
2017-05-20T13:09:56.116Z,19.13
2017-05-20T13:11:11.682Z,19.08
2017-05-20T13:12:19.806Z,19.00
2017-05-20T13:13:22.634Z,19.19
2017-05-20T13:14:26.061Z,19.10
2017-05-20T13:15:10.814Z,19.04
2017-05-20T13:16:12.848Z,19.08
2017-05-20T13:17:16.320Z,19.06
2017-05-20T13:18:18.790Z,18.92
2017-05-20T13:19:21.605Z,18.98
2017-05-20T13:20:24.780Z,19.06
2017-05-20T13:21:09.425Z,18.94
2017-05-20T13:22:11.861Z,18.88
2017-05-20T13:23:15.297Z,18.81
2017-05-20T13:24:18.773Z,18.72
2017-05-20T13:25:23.022Z,18.76
2017-05-20T13:26:25.168Z,18.62
2017-05-20T13:27:28.638Z,18.63
2017-05-20T13:28:32.080Z,18.63
2017-05-20T13:29:47.702Z,18.58
2017-05-20T13:31:02.446Z,18.67
2017-05-20T13:32:04.907Z,18.62
2017-05-20T13:33:09.789Z,18.66
2017-05-20T13:34:12.898Z,18.75
2017-05-20T13:35:28.427Z,18.67
2017-05-20T13:36:36.744Z,18.69